createdAt,value
2018-04-21T00:01:18.300Z,13.20
2018-04-21T00:03:45.780Z,14.63
2018-04-21T00:06:14.057Z,13.97
2018-04-21T00:08:42.302Z,13.00
2018-04-21T00:11:09.786Z,14.90
2018-04-21T00:13:37.266Z,14.73
2018-04-21T00:16:05.531Z,14.53
2018-04-21T00:18:32.981Z,15.27
2018-04-21T00:21:00.449Z,13.03
2018-04-21T00:23:28.690Z,14.53
2018-04-21T00:25:56.278Z,14.47
2018-04-21T00:28:24.534Z,14.20
2018-04-21T00:30:51.997Z,14.20
2018-04-21T00:33:19.480Z,13.50
2018-04-21T00:35:47.713Z,13.43
2018-04-21T00:38:15.201Z,14.97
2018-04-21T00:40:42.661Z,14.00
2018-04-21T00:43:10.150Z,14.60
2018-04-21T00:45:38.401Z,14.90
2018-04-21T00:48:06.641Z,13.97
2018-04-21T00:50:34.121Z,14.30
2018-04-21T00:53:01.591Z,14.80
2018-04-21T00:55:29.061Z,14.77
2018-04-21T00:57:57.301Z,14.60
2018-04-21T01:00:25.289Z,14.73
2018-04-21T01:02:52.767Z,16.23
2018-04-21T01:05:21.005Z,14.83
2018-04-21T01:07:48.481Z,15.20
2018-04-21T01:10:15.954Z,15.63
2018-04-21T01:12:43.421Z,15.90
2018-04-21T01:15:11.670Z,16.00
2018-04-21T01:17:39.159Z,17.20
2018-04-21T01:20:07.397Z,15.50
2018-04-21T01:22:34.890Z,16.23
2018-04-21T01:25:03.132Z,16.30
2018-04-21T01:27:30.621Z,17.33
2018-04-21T01:29:58.094Z,17.43
2018-04-21T01:32:26.342Z,16.90
2018-04-21T01:34:53.817Z,18.20
2018-04-21T01:37:22.057Z,16.00
2018-04-21T01:39:49.535Z,17.53
2018-04-21T01:42:17.009Z,16.87
2018-04-21T01:44:44.482Z,16.97
2018-04-21T01:47:12.713Z,16.73
2018-04-21T01:49:40.201Z,18.70
2018-04-21T01:52:08.437Z,16.27
2018-04-21T01:54:35.910Z,17.50
2018-04-21T01:57:03.432Z,18.20
2018-04-21T01:59:30.898Z,18.80
2018-04-21T02:01:58.369Z,18.40
2018-04-21T02:04:26.118Z,20.40
2018-04-21T02:06:53.580Z,19.23
2018-04-21T02:09:21.060Z,17.50
2018-04-21T02:11:49.001Z,17.23
2018-04-21T02:14:16.468Z,18.60
2018-04-21T02:16:44.238Z,18.30
2018-04-21T02:19:11.709Z,19.13
2018-04-21T02:21:39.213Z,17.90
2018-04-21T02:24:07.465Z,17.83
2018-04-21T02:26:34.945Z,16.17
2018-04-21T02:29:03.194Z,16.00
2018-04-21T02:31:30.654Z,15.57
2018-04-21T02:33:58.130Z,15.03
2018-04-21T02:36:25.671Z,15.93
2018-04-21T02:38:53.120Z,16.70
2018-04-21T02:41:20.597Z,16.00
2018-04-21T02:43:48.071Z,17.10
2018-04-21T02:46:16.298Z,15.80
2018-04-21T02:48:43.781Z,16.47
2018-04-21T02:51:11.261Z,16.23
2018-04-21T02:53:38.757Z,17.03
2018-04-21T02:56:06.226Z,15.27
2018-04-21T02:58:33.709Z,15.57
2018-04-21T03:01:01.181Z,15.30
2018-04-21T03:03:28.646Z,16.30
2018-04-21T03:05:56.116Z,14.53
2018-04-21T03:08:24.348Z,15.40
2018-04-21T03:10:51.834Z,16.47
2018-04-21T03:13:19.308Z,15.50
2018-04-21T03:15:47.551Z,15.70
2018-04-21T03:18:15.784Z,16.03
2018-04-21T03:20:43.273Z,17.47
2018-04-21T03:23:10.733Z,17.13
2018-04-21T03:25:38.207Z,17.90
2018-04-21T03:28:05.685Z,16.80
2018-04-21T03:30:33.148Z,17.00
2018-04-21T03:33:00.613Z,18.13
2018-04-21T03:35:28.855Z,16.87
2018-04-21T03:37:56.320Z,21.70
2018-04-21T03:40:23.814Z,19.47
2018-04-21T03:42:52.051Z,21.00
2018-04-21T03:45:19.541Z,21.37
2018-04-21T03:47:47.789Z,21.30
2018-04-21T03:50:15.252Z,22.50
2018-04-21T03:52:42.729Z,20.90
2018-04-21T03:55:10.196Z,19.40
2018-04-21T03:57:38.436Z,19.57
2018-04-21T04:00:05.937Z,21.17
2018-04-21T04:02:34.164Z,20.40
2018-04-21T04:07:35.596Z,19.50
2018-04-21T04:10:03.071Z,18.73
2018-04-21T04:12:30.539Z,18.70
2018-04-21T04:15:09.875Z,18.07
2018-04-21T04:17:49.324Z,20.40
2018-04-21T04:20:37.349Z,18.63
2018-04-21T04:23:04.836Z,17.13
2018-04-21T04:25:33.152Z,19.90
2018-04-21T04:28:01.380Z,17.80
2018-04-21T04:30:28.856Z,19.03
2018-04-21T04:32:56.320Z,17.67
2018-04-21T04:35:23.797Z,17.53
2018-04-21T04:37:52.025Z,19.40
2018-04-21T04:40:19.501Z,21.00
2018-04-21T04:42:46.966Z,20.67
2018-04-21T04:45:14.432Z,21.20
2018-04-21T04:47:41.902Z,20.03
2018-04-21T04:50:10.145Z,19.63
2018-04-21T04:52:37.622Z,20.57
2018-04-21T04:55:05.093Z,19.70
2018-04-21T04:57:33.344Z,20.23
2018-04-21T05:00:00.819Z,21.67
2018-04-21T05:02:28.280Z,20.00
2018-04-21T05:04:55.764Z,20.50
2018-04-21T05:07:23.220Z,20.57
2018-04-21T05:09:50.829Z,19.90
2018-04-21T05:12:18.290Z,21.00
2018-04-21T05:14:45.749Z,22.43
2018-04-21T05:17:13.231Z,20.90
2018-04-21T05:19:40.685Z,21.70
2018-04-21T05:22:08.160Z,22.13
2018-04-21T05:24:36.400Z,22.03
2018-04-21T05:27:03.866Z,21.37
2018-04-21T05:29:31.342Z,21.00
2018-04-21T05:31:58.813Z,22.50
2018-04-21T05:34:27.053Z,20.73
2018-04-21T05:36:54.530Z,20.33
2018-04-21T05:39:22.002Z,22.63
2018-04-21T05:41:49.467Z,21.70
2018-04-21T05:44:17.706Z,21.93
2018-04-21T05:46:45.969Z,25.60
2018-04-21T05:49:13.437Z,25.70
2018-04-21T05:51:40.909Z,23.17
2018-04-21T05:54:08.375Z,25.37
2018-04-21T05:56:35.853Z,26.27
2018-04-21T05:59:04.090Z,25.33
2018-04-21T06:01:31.563Z,25.90
2018-04-21T06:03:59.220Z,25.73
2018-04-21T06:06:26.687Z,26.17
2018-04-21T06:08:54.164Z,33.10
2018-04-21T06:11:22.404Z,41.30
2018-04-21T06:13:49.879Z,44.43
2018-04-21T06:16:17.347Z,44.13
2018-04-21T06:18:45.733Z,40.77
2018-04-21T06:21:13.219Z,42.40
2018-04-21T06:23:41.441Z,41.57
2018-04-21T06:26:08.936Z,46.17
2018-04-21T06:28:37.172Z,44.77
2018-04-21T06:31:04.634Z,43.70
2018-04-21T06:33:32.110Z,43.50
2018-04-21T06:35:59.582Z,42.70
2018-04-21T06:38:27.048Z,42.70
2018-04-21T06:40:55.574Z,42.10
2018-04-21T06:43:23.048Z,37.90
2018-04-21T06:45:50.516Z,38.23
2018-04-21T06:48:18.001Z,35.40
2018-04-21T06:50:46.486Z,32.87
2018-04-21T06:53:14.720Z,30.60
2018-04-21T06:55:42.196Z,31.57
2018-04-21T06:58:09.693Z,33.27
2018-04-21T07:00:37.910Z,32.80
2018-04-21T07:03:05.395Z,31.67
2018-04-21T07:05:32.869Z,29.30
2018-04-21T07:08:01.114Z,31.80
2018-04-21T07:10:28.580Z,29.20
2018-04-21T07:12:56.048Z,29.93
2018-04-21T07:15:23.519Z,29.17
2018-04-21T07:17:50.989Z,36.30
2018-04-21T07:20:19.237Z,35.40
2018-04-21T07:22:46.712Z,35.40
2018-04-21T07:25:14.182Z,38.10
2018-04-21T07:27:42.426Z,36.83
2018-04-21T07:30:09.885Z,37.53
2018-04-21T07:32:37.364Z,35.30
2018-04-21T07:35:04.825Z,36.40
2018-04-21T07:37:33.085Z,33.03
2018-04-21T07:40:00.553Z,34.80
2018-04-21T07:42:28.030Z,33.43
2018-04-21T07:44:56.264Z,31.80
2018-04-21T07:47:23.750Z,28.80
2018-04-21T07:49:51.220Z,27.40
2018-04-21T07:52:19.462Z,32.10
2018-04-21T07:54:46.929Z,32.93
2018-04-21T07:57:14.434Z,33.13
2018-04-21T07:59:43.040Z,28.10
2018-04-21T08:02:10.521Z,31.60
2018-04-21T08:04:37.977Z,26.97
2018-04-21T08:07:05.472Z,25.90
2018-04-21T08:09:33.713Z,26.43
2018-04-21T08:12:01.190Z,29.20
2018-04-21T08:14:28.652Z,26.87
2018-04-21T08:16:56.126Z,28.27
2018-04-21T08:19:24.374Z,29.07
2018-04-21T08:21:51.844Z,28.40
2018-04-21T08:24:19.305Z,30.23
2018-04-21T08:26:46.801Z,32.87
2018-04-21T08:29:14.289Z,30.87
2018-04-21T08:31:41.771Z,31.77
2018-04-21T08:34:09.244Z,32.83
2018-04-21T08:36:36.713Z,33.73
2018-04-21T08:39:04.960Z,33.13
2018-04-21T08:41:32.429Z,34.87
2018-04-21T08:43:59.902Z,34.93
2018-04-21T08:46:27.385Z,36.40
2018-04-21T08:48:54.901Z,38.67
2018-04-21T08:51:22.453Z,35.50
2018-04-21T08:53:49.985Z,36.90
2018-04-21T08:56:17.511Z,36.70
2018-04-21T08:58:44.979Z,37.13
2018-04-21T09:01:13.234Z,36.50
2018-04-21T09:03:40.734Z,35.53
2018-04-21T09:06:08.357Z,33.70
2018-04-21T09:08:35.824Z,31.37
2018-04-21T09:11:04.131Z,28.73
2018-04-21T09:13:31.633Z,28.43
2018-04-21T09:15:59.133Z,31.00
2018-04-21T09:18:26.623Z,26.57
2018-04-21T09:20:54.121Z,29.17
2018-04-21T09:23:22.224Z,27.43
2018-04-21T09:25:49.780Z,30.30
2018-04-21T09:28:18.128Z,29.97
2018-04-21T09:30:45.624Z,29.60
2018-04-21T09:33:13.109Z,31.90
2018-04-21T09:35:40.589Z,27.40
2018-04-21T09:38:08.278Z,26.90
2018-04-21T09:40:35.743Z,25.93
2018-04-21T09:43:03.244Z,23.73
2018-04-21T09:45:30.749Z,25.10
2018-04-21T09:47:58.192Z,24.87
2018-04-21T09:50:25.677Z,26.67
2018-04-21T09:52:53.149Z,19.03
2018-04-21T09:55:21.400Z,24.93
2018-04-21T09:57:48.871Z,19.03
2018-04-21T10:00:21.929Z,18.27
2018-04-21T10:02:49.437Z,20.10
2018-04-21T10:05:17.669Z,24.90
2018-04-21T10:07:45.158Z,21.10
2018-04-21T10:10:13.392Z,21.07
2018-04-21T10:12:40.874Z,22.23
2018-04-21T10:15:08.340Z,23.40
2018-04-21T10:17:35.826Z,22.50
2018-04-21T10:20:04.076Z,22.80
2018-04-21T10:22:31.552Z,19.33
2018-04-21T10:25:00.175Z,18.27
2018-04-21T10:27:27.653Z,18.33
2018-04-21T10:29:55.118Z,25.50
2018-04-21T10:32:22.798Z,26.47
2018-04-21T10:34:51.058Z,29.47
2018-04-21T10:37:18.526Z,27.87
2018-04-21T10:39:46.023Z,29.97
2018-04-21T10:42:14.255Z,34.07
2018-04-21T10:44:41.728Z,32.70
2018-04-21T10:47:09.192Z,32.90
2018-04-21T10:49:36.677Z,31.63
2018-04-21T10:52:04.918Z,28.20
2018-04-21T10:54:32.894Z,29.50
2018-04-21T10:57:00.505Z,30.97
2018-04-21T10:59:27.983Z,28.73
2018-04-21T11:01:55.486Z,29.43
2018-04-21T11:04:22.962Z,29.63
2018-04-21T11:06:51.199Z,24.17
2018-04-21T11:09:18.713Z,26.13
2018-04-21T11:11:46.939Z,21.63
2018-04-21T11:14:14.500Z,22.97
2018-04-21T11:16:42.029Z,20.97
2018-04-21T11:19:09.508Z,22.77
2018-04-21T11:21:37.039Z,23.43
2018-04-21T11:24:04.536Z,23.03
2018-04-21T11:26:32.809Z,23.40
2018-04-21T11:29:01.809Z,24.40
2018-04-21T11:31:29.363Z,26.70
2018-04-21T11:33:56.921Z,27.10
2018-04-21T11:36:24.380Z,26.80
2018-04-21T11:38:51.864Z,32.33
2018-04-21T11:41:19.381Z,26.10
2018-04-21T11:43:47.644Z,28.00
2018-04-21T11:46:15.179Z,27.63
2018-04-21T11:48:43.920Z,27.50
2018-04-21T11:51:11.392Z,27.37
2018-04-21T11:53:38.861Z,26.87
2018-04-21T11:56:06.450Z,26.00
2018-04-21T11:58:34.679Z,30.00
2018-04-21T12:01:02.159Z,27.80
2018-04-21T12:03:29.632Z,24.90
2018-04-21T12:05:57.105Z,26.60
2018-04-21T12:08:25.355Z,23.00
2018-04-21T12:10:52.852Z,24.43
2018-04-21T12:13:21.088Z,24.00
2018-04-21T12:15:48.553Z,22.97
2018-04-21T12:18:16.796Z,20.93
2018-04-21T12:20:44.260Z,22.53
2018-04-21T12:23:12.656Z,24.30
2018-04-21T12:25:40.200Z,23.10
2018-04-21T12:28:07.794Z,23.33
2018-04-21T12:30:36.073Z,23.53
2018-04-21T12:33:04.317Z,22.80
2018-04-21T12:35:31.827Z,20.57
2018-04-21T12:37:59.346Z,22.47
2018-04-21T12:40:26.835Z,24.43
2018-04-21T12:42:55.057Z,24.67
2018-04-21T12:45:22.690Z,22.63
2018-04-21T12:47:50.778Z,21.40
2018-04-21T12:50:18.290Z,25.20
2018-04-21T12:52:45.749Z,24.47
2018-04-21T12:55:14.077Z,24.43
2018-04-21T12:57:45.512Z,24.37
2018-04-21T13:00:13.238Z,26.60
2018-04-21T13:02:40.689Z,24.30
2018-04-21T13:05:08.221Z,25.17
2018-04-21T13:07:35.678Z,23.60
2018-04-21T13:10:03.154Z,22.97
2018-04-21T13:12:31.403Z,22.43
2018-04-21T13:14:58.923Z,23.03
2018-04-21T13:17:26.381Z,23.00
2018-04-21T13:19:54.649Z,21.00
2018-04-21T13:22:22.126Z,20.50
2018-04-21T13:24:50.640Z,20.07
2018-04-21T13:27:18.128Z,20.53
2018-04-21T13:29:45.604Z,20.90
2018-04-21T13:32:13.949Z,21.83
2018-04-21T13:34:41.420Z,20.27
2018-04-21T13:37:09.039Z,18.80
2018-04-21T13:39:36.583Z,19.73
2018-04-21T13:42:03.958Z,20.83
2018-04-21T13:44:31.434Z,19.67
2018-04-21T13:46:58.900Z,17.93
2018-04-21T13:49:26.405Z,18.40
2018-04-21T13:51:53.888Z,17.77
2018-04-21T13:54:22.112Z,18.10
2018-04-21T13:56:49.592Z,19.40
2018-04-21T13:59:17.069Z,16.17
2018-04-21T14:01:45.313Z,16.97
2018-04-21T14:04:12.772Z,17.47
2018-04-21T14:06:40.286Z,17.60
2018-04-21T14:09:07.768Z,16.13
2018-04-21T14:11:35.266Z,16.10
2018-04-21T14:14:02.739Z,21.03
2018-04-21T14:16:30.964Z,18.40
2018-04-21T14:18:58.440Z,16.67
2018-04-21T14:21:25.921Z,18.10
2018-04-21T14:23:53.395Z,15.27
2018-04-21T14:26:21.634Z,17.90
2018-04-21T14:28:49.123Z,19.17
2018-04-21T14:31:16.584Z,17.53
2018-04-21T14:33:44.825Z,19.63
2018-04-21T14:36:12.295Z,19.47
2018-04-21T14:38:39.777Z,17.30
2018-04-21T14:41:07.250Z,20.60
2018-04-21T14:43:35.480Z,18.73
2018-04-21T14:46:02.984Z,15.10
2018-04-21T14:48:32.775Z,16.00
2018-04-21T14:51:00.365Z,13.03
2018-04-21T14:53:27.888Z,14.60
2018-04-21T14:55:56.161Z,14.53
2018-04-21T14:58:24.803Z,15.67
2018-04-21T15:00:52.317Z,12.63
2018-04-21T15:03:19.966Z,12.90
2018-04-21T15:05:47.461Z,13.07
2018-04-21T15:08:15.000Z,10.53
2018-04-21T15:10:43.353Z,12.90
2018-04-21T15:13:11.096Z,13.10
2018-04-21T15:15:38.738Z,11.30
2018-04-21T15:18:06.205Z,12.97
2018-04-21T15:20:33.742Z,16.17
2018-04-21T15:23:02.018Z,16.43
2018-04-21T15:25:29.512Z,15.47
2018-04-21T15:27:57.786Z,14.43
2018-04-21T15:30:25.256Z,15.33
2018-04-21T15:32:52.870Z,16.97
2018-04-21T15:35:21.117Z,17.53
2018-04-21T15:37:48.711Z,16.40
2018-04-21T15:40:16.233Z,15.60
2018-04-21T15:42:43.774Z,14.53
2018-04-21T15:45:11.272Z,15.50
2018-04-21T15:47:38.736Z,15.50
2018-04-21T15:50:06.243Z,14.57
2018-04-21T15:52:33.709Z,15.13
2018-04-21T15:55:01.195Z,16.43
2018-04-21T15:57:28.663Z,15.50
2018-04-21T15:59:56.146Z,15.30
2018-04-21T16:02:24.408Z,15.20
2018-04-21T16:04:51.890Z,15.23
2018-04-21T16:07:20.125Z,14.07
2018-04-21T16:09:47.610Z,13.67
2018-04-21T16:12:15.076Z,12.63
2018-04-21T16:14:43.319Z,12.37
2018-04-21T16:17:10.796Z,12.53
2018-04-21T16:19:39.065Z,11.10
2018-04-21T16:22:06.538Z,10.30
2018-04-21T16:24:34.073Z,12.00
2018-04-21T16:27:01.504Z,10.43
2018-04-21T16:29:28.980Z,11.00
2018-04-21T16:31:56.452Z,10.90
2018-04-21T16:34:23.925Z,10.40
2018-04-21T16:36:51.399Z,10.20
2018-04-21T16:39:19.643Z,9.90
2018-04-21T16:41:47.100Z,9.80
2018-04-21T16:44:14.561Z,9.73
2018-04-21T16:46:42.028Z,7.90
2018-04-21T16:49:09.505Z,9.43
2018-04-21T16:51:37.765Z,7.93
2018-04-21T16:54:05.220Z,8.93
2018-04-21T16:56:32.689Z,8.37
2018-04-21T16:59:00.174Z,8.00
2018-04-21T17:01:28.418Z,7.33
2018-04-21T17:03:55.880Z,6.87
2018-04-21T17:06:23.346Z,6.67
2018-04-21T17:08:50.806Z,6.00
2018-04-21T17:11:18.297Z,6.67
2018-04-21T17:13:45.753Z,6.17
2018-04-21T17:16:13.234Z,5.83
2018-04-21T17:18:40.701Z,7.00
2018-04-21T17:21:08.177Z,6.30
2018-04-21T17:23:35.633Z,6.10
2018-04-21T17:26:03.119Z,5.97
2018-04-21T17:28:30.584Z,5.60
2018-04-21T17:30:58.808Z,6.03
2018-04-21T17:33:26.355Z,6.53
2018-04-21T17:35:53.780Z,5.83
2018-04-21T17:38:22.016Z,5.93
2018-04-21T17:40:49.489Z,5.20
2018-04-21T17:43:16.951Z,5.20
2018-04-21T17:45:44.416Z,5.37
2018-04-21T17:48:11.884Z,5.27
2018-04-21T17:50:39.353Z,4.67
2018-04-21T17:53:07.604Z,4.70
2018-04-21T17:55:35.797Z,4.57
2018-04-21T17:58:04.797Z,4.97
2018-04-21T18:00:33.101Z,4.17
2018-04-21T18:03:00.584Z,4.70
2018-04-21T18:05:28.049Z,4.00
2018-04-21T18:07:55.650Z,3.60
2018-04-21T18:10:23.991Z,3.50
2018-04-21T18:12:51.490Z,5.20
2018-04-21T18:15:19.773Z,6.50
2018-04-21T18:17:47.996Z,4.93
2018-04-21T18:20:15.499Z,5.30
2018-04-21T18:22:42.968Z,6.17
2018-04-21T18:25:11.223Z,4.93
2018-04-21T18:27:38.685Z,6.17
2018-04-21T18:30:06.190Z,5.80
2018-04-21T18:32:33.652Z,5.10
2018-04-21T18:35:01.135Z,4.53
2018-04-21T18:37:28.596Z,5.50
2018-04-21T18:39:56.068Z,7.70
2018-04-21T18:42:23.554Z,6.00
2018-04-21T18:44:51.864Z,4.97
2018-04-21T18:47:19.379Z,5.37
2018-04-21T18:49:47.622Z,5.70
2018-04-21T18:52:15.111Z,5.90
2018-04-21T18:54:42.571Z,4.90
2018-04-21T18:57:10.052Z,5.40
2018-04-21T18:59:37.549Z,6.13
2018-04-21T19:02:05.023Z,6.20
2018-04-21T19:04:32.560Z,6.40
2018-04-21T19:07:00.772Z,6.43
2018-04-21T19:09:28.258Z,5.77
2018-04-21T19:11:56.501Z,6.97
2018-04-21T19:14:23.968Z,7.20
2018-04-21T19:16:51.432Z,7.07
2018-04-21T19:19:18.888Z,5.80
2018-04-21T19:21:46.369Z,6.57
2018-04-21T19:24:14.656Z,7.03
2018-04-21T19:26:42.170Z,5.33
2018-04-21T19:29:09.644Z,6.97
2018-04-21T19:31:37.116Z,6.27
2018-04-21T19:34:05.428Z,6.30
2018-04-21T19:36:32.907Z,7.50
2018-04-21T19:39:00.397Z,7.50
2018-04-21T19:41:27.878Z,7.90
2018-04-21T19:43:56.233Z,7.57
2018-04-21T19:46:24.502Z,8.13
2018-04-21T19:48:51.997Z,7.17
2018-04-21T19:51:20.308Z,7.10
2018-04-21T19:53:47.787Z,8.20
2018-04-21T19:56:15.254Z,7.87
2018-04-21T19:58:43.505Z,6.90
2018-04-21T20:01:10.977Z,7.10
2018-04-21T20:03:38.471Z,6.70
2018-04-21T20:06:06.751Z,6.90
2018-04-21T20:08:34.596Z,7.70
2018-04-21T20:11:02.061Z,6.77
2018-04-21T20:13:29.592Z,7.67
2018-04-21T20:15:57.055Z,8.03
2018-04-21T20:18:24.622Z,7.70
2018-04-21T20:20:52.061Z,8.00
2018-04-21T20:23:19.524Z,7.43
2018-04-21T20:25:47.002Z,8.07
2018-04-21T20:28:14.472Z,6.93
2018-04-21T20:30:41.943Z,8.57
2018-04-21T20:33:10.205Z,7.50
2018-04-21T20:35:37.677Z,7.77
2018-04-21T20:38:05.915Z,6.50
2018-04-21T20:40:34.912Z,8.03
2018-04-21T20:43:02.405Z,7.50
2018-04-21T20:45:29.882Z,7.40
2018-04-21T20:47:58.129Z,7.90
2018-04-21T20:50:25.770Z,7.17
2018-04-21T20:52:53.263Z,6.70
2018-04-21T20:55:20.729Z,6.77
2018-04-21T20:57:48.971Z,6.80
2018-04-21T21:00:16.441Z,6.60
2018-04-21T21:02:43.912Z,6.37
2018-04-21T21:05:11.389Z,7.20
2018-04-21T21:07:39.755Z,7.30
2018-04-21T21:10:07.230Z,6.33
2018-04-21T21:12:34.698Z,6.17
2018-04-21T21:15:02.160Z,9.10
2018-04-21T21:17:29.635Z,6.70
2018-04-21T21:19:57.092Z,8.00
2018-04-21T21:22:24.568Z,7.20
2018-04-21T21:24:52.912Z,6.67
2018-04-21T21:27:20.401Z,6.57
2018-04-21T21:29:47.855Z,7.37
2018-04-21T21:32:15.348Z,7.80
2018-04-21T21:34:42.804Z,7.20
2018-04-21T21:37:10.297Z,8.33
2018-04-21T21:39:37.785Z,7.77
2018-04-21T21:42:05.263Z,6.93
2018-04-21T21:44:32.740Z,7.33
2018-04-21T21:47:00.211Z,7.80
2018-04-21T21:49:27.660Z,6.47
2018-04-21T21:51:55.139Z,7.20
2018-04-21T21:54:23.412Z,7.10
2018-04-21T21:56:50.841Z,7.57
2018-04-21T21:59:18.302Z,7.03
2018-04-21T22:01:45.780Z,7.47
2018-04-21T22:04:14.026Z,6.77
2018-04-21T22:06:47.239Z,7.13
2018-04-21T22:09:14.970Z,7.47
2018-04-21T22:11:42.440Z,7.63
2018-04-21T22:14:10.675Z,7.23
2018-04-21T22:16:38.169Z,7.10
2018-04-21T22:19:05.626Z,6.50
2018-04-21T22:21:33.093Z,6.20
2018-04-21T22:24:00.568Z,6.70
2018-04-21T22:26:28.036Z,6.40
2018-04-21T22:28:55.494Z,7.00
2018-04-21T22:31:22.974Z,6.70
2018-04-21T22:33:51.196Z,7.53
2018-04-21T22:36:18.664Z,8.77
2018-04-21T22:38:46.123Z,7.60
2018-04-21T22:41:13.970Z,7.83
2018-04-21T22:43:41.421Z,7.00
2018-04-21T22:46:08.897Z,6.83
2018-04-21T22:48:36.353Z,7.10
2018-04-21T22:51:03.804Z,6.60
2018-04-21T22:53:31.277Z,8.23
2018-04-21T22:55:59.637Z,7.40
2018-04-21T22:58:27.107Z,7.60
2018-04-21T23:00:54.564Z,7.63
2018-04-21T23:03:22.037Z,6.73
2018-04-21T23:05:49.491Z,7.03
2018-04-21T23:08:16.958Z,7.40
2018-04-21T23:10:44.422Z,6.20
2018-04-21T23:13:11.903Z,7.27
2018-04-21T23:15:40.311Z,5.90
2018-04-21T23:18:07.788Z,5.93
2018-04-21T23:20:35.269Z,6.10
2018-04-21T23:23:02.738Z,6.40
2018-04-21T23:25:30.187Z,6.30
2018-04-21T23:27:57.680Z,6.23
2018-04-21T23:30:25.912Z,6.67
2018-04-21T23:32:53.381Z,6.00
2018-04-21T23:35:20.837Z,6.57
2018-04-21T23:37:48.329Z,6.63
2018-04-21T23:40:16.567Z,6.30
2018-04-21T23:42:44.051Z,6.80
2018-04-21T23:45:12.276Z,5.93
2018-04-21T23:47:39.753Z,7.00
2018-04-21T23:50:07.205Z,6.47
2018-04-21T23:52:34.675Z,5.60
2018-04-21T23:55:02.145Z,5.17
2018-04-21T23:57:29.612Z,6.37
2018-04-21T23:59:57.108Z,6.67
